createdAt,value
2022-12-23T00:01:16.089Z,25.27
2022-12-23T00:06:22.315Z,17.05
2022-12-23T00:11:29.878Z,25.23
2022-12-23T00:16:37.790Z,22.08
2022-12-23T00:21:43.078Z,23.98
2022-12-23T00:26:47.533Z,23.73
2022-12-23T00:31:53.284Z,22.52
2022-12-23T00:36:57.780Z,19.00
2022-12-23T00:42:19.401Z,15.43
2022-12-23T00:47:57.078Z,16.75
2022-12-23T00:53:02.116Z,16.20
2022-12-23T00:58:06.561Z,17.80
2022-12-23T01:03:33.073Z,20.40
2022-12-23T01:08:37.404Z,21.45
2022-12-23T01:13:41.832Z,20.38
2022-12-23T01:18:47.784Z,23.42
2022-12-23T01:23:52.449Z,20.33
2022-12-23T01:28:58.070Z,25.85
2022-12-23T01:34:04.023Z,25.42
2022-12-23T01:39:10.118Z,32.97
2022-12-23T01:44:51.534Z,27.27
2022-12-23T01:50:02.667Z,24.02
2022-12-23T01:55:08.646Z,28.40
2022-12-23T02:00:31.438Z,29.20
2022-12-23T02:05:37.753Z,38.30
2022-12-23T02:11:06.429Z,36.10
2022-12-23T02:16:18.307Z,32.22
2022-12-23T02:21:39.080Z,34.50
2022-12-23T02:27:09.414Z,33.30
2022-12-23T02:32:24.878Z,31.35
2022-12-23T02:37:37.980Z,28.50
2022-12-23T02:42:48.502Z,29.23
2022-12-23T02:47:58.894Z,22.23
2022-12-23T02:53:08.949Z,24.00
2022-12-23T02:58:16.859Z,28.30
2022-12-23T03:03:22.652Z,28.88
2022-12-23T03:08:32.898Z,26.88
2022-12-23T03:14:11.501Z,28.42
2022-12-23T03:19:27.593Z,25.92
2022-12-23T03:24:42.816Z,28.65
2022-12-23T03:29:55.875Z,27.77
2022-12-23T03:35:03.626Z,27.67
2022-12-23T03:40:16.110Z,26.83
2022-12-23T03:45:38.745Z,25.92
2022-12-23T03:50:49.942Z,30.15
2022-12-23T03:56:01.177Z,26.77
2022-12-23T04:01:18.221Z,30.13
2022-12-23T04:06:28.267Z,34.28
2022-12-23T04:11:33.634Z,31.25
2022-12-23T04:16:38.400Z,39.85
2022-12-23T04:26:48.275Z,40.20
2022-12-23T04:31:52.967Z,32.65
2022-12-23T04:36:58.857Z,33.88
2022-12-23T04:42:03.242Z,35.33
2022-12-23T04:52:13.736Z,35.67
2022-12-23T04:57:18.927Z,44.25
2022-12-23T05:02:23.267Z,38.75
2022-12-23T05:07:29.299Z,36.78
2022-12-23T05:12:33.939Z,38.45
2022-12-23T05:17:38.132Z,36.22
2022-12-23T05:22:44.110Z,41.10
2022-12-23T05:27:48.578Z,41.95
2022-12-23T05:32:55.203Z,36.83
2022-12-23T05:38:02.593Z,36.88
2022-12-23T05:43:07.060Z,35.55
2022-12-23T05:48:11.726Z,38.30
2022-12-23T05:53:17.907Z,39.85
2022-12-23T05:58:22.172Z,39.25
2022-12-23T06:03:26.806Z,45.47
2022-12-23T06:08:32.777Z,45.08
2022-12-23T06:13:37.345Z,37.40
2022-12-23T06:18:41.801Z,35.22
2022-12-23T06:23:47.837Z,35.42
2022-12-23T06:28:52.352Z,39.72
2022-12-23T06:33:56.920Z,38.40
2022-12-23T06:39:02.589Z,31.58
2022-12-23T06:44:07.681Z,37.22
2022-12-23T06:54:19.592Z,33.72
2022-12-23T06:59:25.441Z,38.25
2022-12-23T07:04:29.878Z,34.70
2022-12-23T07:09:35.884Z,37.40
2022-12-23T07:14:40.501Z,37.17
2022-12-23T07:19:45.095Z,32.33
2022-12-23T07:24:50.822Z,34.05
2022-12-23T07:29:55.469Z,31.13
2022-12-23T07:34:59.991Z,32.00
2022-12-23T07:40:08.985Z,34.70
2022-12-23T07:45:13.616Z,28.67
2022-12-23T07:50:18.323Z,32.88
2022-12-23T07:55:24.967Z,27.95
2022-12-23T08:00:29.907Z,28.17
2022-12-23T08:05:34.117Z,26.20
2022-12-23T08:10:47.798Z,26.88
2022-12-23T08:15:57.391Z,24.33
2022-12-23T08:21:05.390Z,22.13
2022-12-23T08:26:13.864Z,28.15
2022-12-23T08:31:22.541Z,21.10
2022-12-23T08:36:30.997Z,21.48
2022-12-23T08:41:44.550Z,24.77
2022-12-23T08:46:50.774Z,25.35
2022-12-23T08:51:55.577Z,26.83
2022-12-23T09:02:08.917Z,22.33
2022-12-23T09:07:13.942Z,21.58
2022-12-23T09:12:19.834Z,22.45
2022-12-23T09:17:25.601Z,21.38
2022-12-23T09:22:29.945Z,18.63
2022-12-23T09:27:35.572Z,16.00
2022-12-23T09:32:39.905Z,21.98
2022-12-23T09:37:44.486Z,22.67
2022-12-23T09:43:07.909Z,17.48
2022-12-23T09:48:18.613Z,17.67
2022-12-23T09:53:27.277Z,12.27
2022-12-23T09:58:39.231Z,18.17
2022-12-23T10:04:11.320Z,13.52
2022-12-23T10:09:18.412Z,13.38
2022-12-23T10:14:30.347Z,15.70
2022-12-23T10:19:42.176Z,14.40
2022-12-23T10:24:48.592Z,22.15
2022-12-23T10:29:54.143Z,17.20
2022-12-23T10:35:09.831Z,14.90
2022-12-23T10:40:22.567Z,17.05
2022-12-23T10:45:49.012Z,16.10
2022-12-23T10:51:02.125Z,16.42
2022-12-23T10:56:07.899Z,19.27
2022-12-23T11:01:26.182Z,13.85
2022-12-23T11:06:37.476Z,16.55
2022-12-23T11:11:57.068Z,17.65
2022-12-23T11:17:04.257Z,16.95
2022-12-23T11:22:24.746Z,15.18
2022-12-23T11:27:29.560Z,13.95
2022-12-23T11:32:35.842Z,14.93
2022-12-23T11:37:44.403Z,14.38
2022-12-23T11:42:53.555Z,16.35
2022-12-23T11:48:01.191Z,14.30
2022-12-23T11:53:14.490Z,13.63
2022-12-23T11:58:23.286Z,13.80
2022-12-23T12:03:33.428Z,17.20
2022-12-23T12:08:39.632Z,16.33
2022-12-23T12:13:50.108Z,17.60
2022-12-23T12:19:02.074Z,17.00
2022-12-23T12:24:19.040Z,15.10
2022-12-23T12:29:29.863Z,13.18
2022-12-23T12:34:50.539Z,18.08
2022-12-23T12:40:04.065Z,12.60
2022-12-23T12:45:22.125Z,12.55
2022-12-23T12:50:31.782Z,14.45
2022-12-23T12:55:43.847Z,13.20
2022-12-23T13:01:03.641Z,14.20
2022-12-23T13:06:23.198Z,14.50
2022-12-23T13:11:44.973Z,18.25
2022-12-23T13:16:59.242Z,15.35
2022-12-23T13:22:10.006Z,16.20
2022-12-23T13:27:20.046Z,21.13
2022-12-23T13:32:45.244Z,19.48
2022-12-23T13:38:04.388Z,16.85
2022-12-23T13:43:17.009Z,13.85
2022-12-23T13:48:40.037Z,13.27
2022-12-23T13:54:04.964Z,12.95
2022-12-23T14:04:37.826Z,15.65
2022-12-23T14:09:43.911Z,21.95
2022-12-23T14:15:16.240Z,18.42
2022-12-23T14:20:35.323Z,22.23
2022-12-23T14:26:06.476Z,19.67
2022-12-23T14:31:32.152Z,15.80
2022-12-23T14:36:38.574Z,19.25
2022-12-23T14:41:53.200Z,21.15
2022-12-23T14:46:59.477Z,21.65
2022-12-23T14:52:49.233Z,19.27
2022-12-23T14:58:07.869Z,19.23
2022-12-23T15:03:13.394Z,18.83
2022-12-23T15:08:32.449Z,21.33
2022-12-23T15:13:39.134Z,21.33
2022-12-23T15:18:55.154Z,25.58
2022-12-23T15:23:59.859Z,27.17
2022-12-23T15:34:21.812Z,31.20
2022-12-23T15:39:34.487Z,28.33
2022-12-23T15:44:43.025Z,32.05
2022-12-23T15:49:47.437Z,32.55
2022-12-23T15:55:01.840Z,34.13
2022-12-23T16:00:21.642Z,36.10
2022-12-23T16:05:30.803Z,27.13
2022-12-23T16:10:35.587Z,28.15
2022-12-23T16:15:41.835Z,27.15
2022-12-23T16:20:50.447Z,25.98
2022-12-23T16:25:55.581Z,25.00
2022-12-23T16:31:01.619Z,22.85
2022-12-23T16:36:22.148Z,21.42
2022-12-23T16:41:26.843Z,24.80
2022-12-23T16:46:35.396Z,24.23
2022-12-23T16:51:41.763Z,23.33
2022-12-23T16:56:47.714Z,27.58
2022-12-23T17:01:58.120Z,21.42
2022-12-23T17:12:14.929Z,31.02
2022-12-23T17:17:22.920Z,26.95
2022-12-23T17:22:27.574Z,26.27
2022-12-23T17:32:37.877Z,28.80
2022-12-23T17:37:42.726Z,32.55
2022-12-23T17:42:49.302Z,31.40
2022-12-23T17:47:55.798Z,33.78
2022-12-23T17:53:00.488Z,34.25
2022-12-23T17:58:05.331Z,40.00
2022-12-23T18:03:23.420Z,41.42
2022-12-23T18:08:27.774Z,39.38
2022-12-23T18:13:32.522Z,41.67
2022-12-23T18:18:45.834Z,38.47
2022-12-23T18:23:52.246Z,41.57
2022-12-23T18:28:56.440Z,37.03
2022-12-23T18:34:02.088Z,32.37
2022-12-23T18:39:06.737Z,35.47
2022-12-23T18:44:17.372Z,38.55
2022-12-23T18:49:23.550Z,40.17
2022-12-23T18:54:28.058Z,35.65
2022-12-23T18:59:33.076Z,33.63
2022-12-23T19:09:43.152Z,28.83
2022-12-23T19:14:47.376Z,33.55
2022-12-23T19:19:53.146Z,31.70
2022-12-23T19:25:05.431Z,31.52
2022-12-23T19:30:15.052Z,35.08
2022-12-23T19:35:21.466Z,39.08
2022-12-23T19:40:25.889Z,37.35
2022-12-23T19:45:30.398Z,42.63
2022-12-23T19:50:36.003Z,41.13
2022-12-23T19:55:41.910Z,40.28
2022-12-23T20:00:47.222Z,38.92
2022-12-23T20:05:53.343Z,42.10
2022-12-23T20:11:06.133Z,37.88
2022-12-23T20:16:13.341Z,33.72
2022-12-23T20:21:21.594Z,40.63
2022-12-23T20:26:27.703Z,42.38
2022-12-23T20:31:34.265Z,43.85
2022-12-23T20:36:40.289Z,42.88
2022-12-23T20:41:44.835Z,48.72
2022-12-23T20:46:49.847Z,45.72
2022-12-23T20:51:55.476Z,45.15
2022-12-23T20:57:00.035Z,44.95
2022-12-23T21:02:04.617Z,43.03
2022-12-23T21:07:10.599Z,37.90
2022-12-23T21:12:15.063Z,46.70
2022-12-23T21:17:21.072Z,39.10
2022-12-23T21:22:26.693Z,38.85
2022-12-23T21:27:31.324Z,42.40
2022-12-23T21:32:36.980Z,41.03
2022-12-23T21:37:42.774Z,53.53
2022-12-23T21:42:47.355Z,48.67
2022-12-23T21:47:52.885Z,51.83
2022-12-23T21:52:58.688Z,57.15
2022-12-23T21:58:03.193Z,53.85
2022-12-23T22:03:07.554Z,61.78
2022-12-23T22:08:13.119Z,58.72
2022-12-23T22:13:17.364Z,64.28
2022-12-23T22:18:21.547Z,59.67
2022-12-23T22:23:27.346Z,54.05
2022-12-23T22:28:33.959Z,61.95
2022-12-23T22:33:38.718Z,54.95
2022-12-23T22:38:45.575Z,48.83
2022-12-23T22:43:50.039Z,51.03
2022-12-23T22:48:54.974Z,48.78
2022-12-23T22:54:03.846Z,50.80
2022-12-23T22:59:08.397Z,47.60
2022-12-23T23:09:21.037Z,46.08
2022-12-23T23:14:26.798Z,50.50
2022-12-23T23:19:31.177Z,44.67
2022-12-23T23:24:37.007Z,48.05
2022-12-23T23:29:41.953Z,39.63
2022-12-23T23:39:52.616Z,36.45
2022-12-23T23:44:57.220Z,35.90
2022-12-23T23:50:01.822Z,36.88
2022-12-23T23:55:09.654Z,39.65
